Time;durP1;ratioP1;P1;durP2;ratioP2;P2;SDS_P1;SDS_P2;PMS_P1;PMS_P2;Temp;Humidity;BMP_temperature;BMP_pressure;BME280_temperature;BME280_humidity;BME280_pressure;Samples;Min_cycle;Max_cycle;Signal;HPM_P1;HPM_P2
2022/09/09 00:01:38;;;;;;;13.90;3.72;;;16.40;99.90;;;;;;4947752;28;20044;-53
2022/09/09 00:04:05;;;;;;;13.65;3.67;;;16.40;99.90;;;;;;4955061;29;20083;-56
2022/09/09 00:06:33;;;;;;;12.10;3.78;;;16.40;99.90;;;;;;4954240;28;20122;-57
2022/09/09 00:08:59;;;;;;;14.00;3.65;;;16.40;99.90;;;;;;4956112;28;20423;-56
2022/09/09 00:11:26;;;;;;;11.25;3.00;;;16.40;99.90;;;;;;4954112;28;20118;-55
2022/09/09 00:13:57;;;;;;;15.68;3.83;;;16.40;99.90;;;;;;4954041;28;20059;-57
2022/09/09 00:16:23;;;;;;;12.27;3.25;;;16.40;99.90;;;;;;4955189;28;20118;-54
2022/09/09 00:18:50;;;;;;;13.13;3.20;;;16.40;99.90;;;;;;4954806;28;20035;-57
2022/09/09 00:21:17;;;;;;;14.10;3.58;;;16.40;99.90;;;;;;4954936;29;20114;-56
2022/09/09 00:23:44;;;;;;;10.23;3.03;;;16.40;99.90;;;;;;4955194;28;20138;-53
2022/09/09 00:26:10;;;;;;;9.68;2.78;;;16.40;99.90;;;;;;4954487;29;20035;-55
2022/09/09 00:28:37;;;;;;;9.10;2.85;;;16.40;99.90;;;;;;4955535;28;20055;-55
2022/09/09 00:31:04;;;;;;;12.27;3.33;;;16.40;99.90;;;;;;4969293;28;20499;-56
2022/09/09 00:33:31;;;;;;;11.32;3.20;;;16.40;99.90;;;;;;4952728;29;20039;-52
2022/09/09 00:35:58;;;;;;;12.20;3.25;;;16.40;99.90;;;;;;4953940;29;20047;-55
2022/09/09 00:38:24;;;;;;;14.80;3.30;;;16.40;99.90;;;;;;4967352;28;20074;-55
2022/09/09 00:40:52;;;;;;;14.20;3.22;;;16.40;99.90;;;;;;4954733;29;20043;-52
2022/09/09 00:43:18;;;;;;;8.98;2.97;;;16.50;99.90;;;;;;4953587;28;20487;-55
2022/09/09 00:45:45;;;;;;;12.55;3.15;;;16.50;99.90;;;;;;4953942;28;20075;-55
2022/09/09 00:48:12;;;;;;;11.07;2.95;;;16.50;99.90;;;;;;4954732;28;20399;-55
2022/09/09 00:50:39;;;;;;;13.45;3.05;;;16.50;99.90;;;;;;4954755;28;20047;-54
2022/09/09 00:53:05;;;;;;;12.07;2.83;;;16.40;99.90;;;;;;4953474;28;20047;-54
2022/09/09 00:55:32;;;;;;;13.75;3.33;;;16.40;99.90;;;;;;4951454;28;20043;-54
2022/09/09 00:57:59;;;;;;;15.73;3.17;;;16.40;99.90;;;;;;4936479;29;20123;-52
2022/09/09 01:00:26;;;;;;;11.27;2.95;;;16.40;99.90;;;;;;4951410;29;20039;-53
2022/09/09 01:02:53;;;;;;;10.07;2.70;;;16.40;99.90;;;;;;4951611;28;20065;-53
2022/09/09 01:05:20;;;;;;;16.92;3.45;;;16.40;99.90;;;;;;4969484;28;20506;-56
2022/09/09 01:07:47;;;;;;;13.15;3.08;;;16.40;99.90;;;;;;4953278;29;20051;-51
2022/09/09 01:10:14;;;;;;;12.15;3.30;;;16.40;99.90;;;;;;4952478;29;20052;-55
2022/09/09 01:12:41;;;;;;;13.02;3.30;;;16.40;99.90;;;;;;4954232;29;20051;-52
2022/09/09 01:15:11;;;;;;;10.23;2.97;;;16.40;99.90;;;;;;4952977;29;20050;-53
2022/09/09 01:17:45;;;;;;;13.23;3.55;;;16.40;99.90;;;;;;4969387;28;20063;-50
2022/09/09 01:20:12;;;;;;;9.85;3.05;;;16.40;99.90;;;;;;4952876;28;20082;-55
2022/09/09 01:22:46;;;;;;;12.65;3.22;;;16.40;99.90;;;;;;4966819;28;20506;-56
2022/09/09 01:25:13;;;;;;;9.30;2.92;;;16.40;99.90;;;;;;4954220;28;20487;-51
2022/09/09 01:27:58;;;;;;;11.00;3.08;;;16.40;99.90;;;;;;4968886;28;20050;-52
2022/09/09 01:30:25;;;;;;;13.20;3.17;;;16.40;99.90;;;;;;4953015;29;20051;-51
2022/09/09 01:32:52;;;;;;;9.65;3.05;;;16.40;99.90;;;;;;4952884;28;20047;-52
2022/09/09 01:35:19;;;;;;;14.30;3.33;;;16.40;99.90;;;;;;4954270;28;20043;-52
2022/09/09 01:37:46;;;;;;;12.00;3.28;;;16.40;99.90;;;;;;4950026;29;20048;-51
2022/09/09 01:40:13;;;;;;;13.32;3.08;;;16.40;99.90;;;;;;4950066;29;20043;-54
2022/09/09 01:42:40;;;;;;;10.18;3.15;;;16.50;99.90;;;;;;4952877;29;20043;-53
2022/09/09 01:45:07;;;;;;;13.15;3.53;;;16.50;99.90;;;;;;4952444;28;20039;-55
2022/09/09 01:47:34;;;;;;;14.95;2.83;;;16.50;99.90;;;;;;4966839;28;20050;-53
2022/09/09 01:50:08;;;;;;;11.27;3.28;;;16.50;99.90;;;;;;4966678;28;20196;-52
2022/09/09 01:52:34;;;;;;;14.13;2.83;;;16.50;99.90;;;;;;4938733;29;20063;-54
2022/09/09 01:55:02;;;;;;;13.80;3.00;;;16.50;99.90;;;;;;4971605;28;20050;-52
2022/09/09 01:57:35;;;;;;;11.10;3.00;;;16.50;99.90;;;;;;4955703;28;20043;-53
2022/09/09 02:00:03;;;;;;;12.25;3.13;;;16.50;99.90;;;;;;4968136;28;20099;-54
2022/09/09 02:02:39;;;;;;;11.73;2.78;;;16.40;99.90;;;;;;4952552;29;20118;-55
2022/09/09 02:05:11;;;;;;;17.17;3.30;;;16.40;99.90;;;;;;4939907;29;20062;-52
2022/09/09 02:07:38;;;;;;;11.38;2.58;;;16.40;99.90;;;;;;4956460;29;20147;-56
2022/09/09 02:10:11;;;;;;;11.07;2.58;;;16.40;99.90;;;;;;4955395;28;20061;-55
2022/09/09 02:12:42;;;;;;;12.65;2.83;;;16.40;99.90;;;;;;4959125;28;20093;-53
2022/09/09 02:15:09;;;;;;;11.57;3.10;;;16.40;99.90;;;;;;4974693;28;20049;-53
2022/09/09 02:17:44;;;;;;;12.20;3.08;;;16.40;99.90;;;;;;4958521;28;20130;-54
2022/09/09 02:20:14;;;;;;;12.18;2.53;;;16.40;99.90;;;;;;4973346;28;20053;-54
2022/09/09 02:22:54;;;;;;;18.05;4.03;;;16.40;99.90;;;;;;4958027;28;20047;-57
2022/09/09 02:25:22;;;;;;;9.52;2.47;;;16.30;99.90;;;;;;4958949;28;20074;-55
2022/09/09 02:27:50;;;;;;;8.68;2.88;;;16.20;99.90;;;;;;4959355;28;20515;-50
2022/09/09 02:30:17;;;;;;;6.80;2.13;;;16.10;99.90;;;;;;4975085;28;20075;-52
2022/09/09 02:32:50;;;;;;;10.35;2.03;;;16.00;99.90;;;;;;4963160;28;20050;-56
2022/09/09 02:35:17;;;;;;;6.82;2.05;;;16.00;99.90;;;;;;4957903;28;20113;-51
2022/09/09 02:37:45;;;;;;;9.82;2.15;;;15.90;99.90;;;;;;4956312;29;20077;-52
2022/09/09 02:40:15;;;;;;;9.40;2.70;;;15.90;99.90;;;;;;4956283;29;20044;-55
2022/09/09 02:42:45;;;;;;;11.50;2.80;;;15.90;99.90;;;;;;4956023;28;20454;-54
2022/09/09 02:45:13;;;;;;;17.50;2.92;;;15.90;99.90;;;;;;4956161;29;20051;-52
2022/09/09 02:47:41;;;;;;;10.93;2.60;;;15.80;99.90;;;;;;4956378;29;20078;-54
2022/09/09 02:50:12;;;;;;;11.40;2.88;;;15.80;99.90;;;;;;4956507;29;20055;-54
2022/09/09 02:52:40;;;;;;;12.55;3.10;;;15.80;99.90;;;;;;4956152;29;20058;-55
2022/09/09 02:55:07;;;;;;;13.25;3.17;;;15.80;99.90;;;;;;4955925;28;20070;-54
2022/09/09 02:57:34;;;;;;;16.27;4.28;;;15.80;99.90;;;;;;4957179;28;20487;-53
2022/09/09 03:00:01;;;;;;;13.63;3.65;;;15.80;99.90;;;;;;4939973;29;20090;-54
2022/09/09 03:02:30;;;;;;;15.40;4.03;;;15.80;99.90;;;;;;4955724;29;20086;-56
2022/09/09 03:05:02;;;;;;;13.75;3.35;;;15.80;99.90;;;;;;4955489;28;20049;-53
2022/09/09 03:07:28;;;;;;;19.40;3.88;;;15.80;99.90;;;;;;4955577;29;20526;-56
2022/09/09 03:09:55;;;;;;;14.80;3.63;;;15.80;99.90;;;;;;4955813;29;20075;-55
2022/09/09 03:12:25;;;;;;;20.23;3.40;;;15.70;99.90;;;;;;4955716;29;20058;-52
2022/09/09 03:14:52;;;;;;;15.00;3.63;;;15.70;99.90;;;;;;4954795;28;20098;-54
2022/09/09 03:17:19;;;;;;;14.43;3.85;;;15.70;99.90;;;;;;4956552;28;20039;-53
2022/09/09 03:19:52;;;;;;;13.68;3.85;;;15.70;99.90;;;;;;4956139;29;20055;-51
2022/09/09 03:22:19;;;;;;;12.00;4.40;;;15.70;99.90;;;;;;4955669;29;20102;-54
2022/09/09 03:24:46;;;;;;;12.88;3.58;;;15.70;99.90;;;;;;4953820;28;20430;-57
2022/09/09 03:27:17;;;;;;;12.35;3.78;;;15.70;99.90;;;;;;4954665;29;20387;-55
2022/09/09 03:29:44;;;;;;;12.95;3.38;;;15.70;99.90;;;;;;4947639;28;20107;-53
2022/09/09 03:32:17;;;;;;;12.50;3.47;;;15.70;99.90;;;;;;4941838;29;20059;-55
2022/09/09 03:34:44;;;;;;;15.82;3.95;;;15.70;99.90;;;;;;4954884;28;20526;-53
2022/09/09 03:37:12;;;;;;;15.68;4.03;;;15.70;99.90;;;;;;4955049;28;20130;-52
2022/09/09 03:39:39;;;;;;;17.13;4.10;;;15.70;99.90;;;;;;4956385;28;20035;-55
2022/09/09 03:42:07;;;;;;;19.13;4.65;;;15.70;99.90;;;;;;4954222;28;20047;-55
2022/09/09 03:44:34;;;;;;;14.45;4.05;;;15.70;99.90;;;;;;4954642;28;20547;-54
2022/09/09 03:47:01;;;;;;;17.13;4.47;;;15.70;99.90;;;;;;4954401;29;20054;-55
2022/09/09 03:49:28;;;;;;;17.33;3.90;;;15.60;99.90;;;;;;4968863;28;20047;-56
2022/09/09 03:51:56;;;;;;;14.63;4.50;;;15.60;99.90;;;;;;4954108;28;20050;-55
2022/09/09 03:54:23;;;;;;;17.83;4.53;;;15.60;99.90;;;;;;4954259;28;20475;-51
2022/09/09 03:56:49;;;;;;;16.10;4.35;;;15.60;99.90;;;;;;4954727;29;20410;-54
2022/09/09 03:59:16;;;;;;;14.57;4.40;;;15.70;99.90;;;;;;4954019;29;20191;-53
2022/09/09 04:01:45;;;;;;;12.20;4.15;;;15.70;99.90;;;;;;4953423;29;20040;-52
2022/09/09 04:04:12;;;;;;;11.82;4.20;;;15.70;99.90;;;;;;4952261;28;20126;-53
2022/09/09 04:06:39;;;;;;;16.50;4.55;;;15.70;99.90;;;;;;4950713;28;20048;-52
2022/09/09 04:09:06;;;;;;;15.90;4.57;;;15.70;99.90;;;;;;4949826;28;20525;-53
2022/09/09 04:11:33;;;;;;;12.05;4.32;;;15.70;99.90;;;;;;4968978;28;20071;-51
2022/09/09 04:14:00;;;;;;;14.32;4.90;;;15.70;99.90;;;;;;4953776;29;20082;-54
2022/09/09 04:16:29;;;;;;;12.82;4.30;;;15.70;99.90;;;;;;4949779;29;20415;-52
2022/09/09 04:18:56;;;;;;;12.98;4.60;;;15.70;99.90;;;;;;4952727;29;20516;-54
2022/09/09 04:21:23;;;;;;;14.70;4.47;;;15.70;99.90;;;;;;4964440;28;20385;-54
2022/09/09 04:23:51;;;;;;;12.77;4.55;;;15.70;99.90;;;;;;4952231;28;20054;-55
2022/09/09 04:26:18;;;;;;;15.65;5.00;;;15.80;99.90;;;;;;4970060;28;20054;-52
2022/09/09 04:28:45;;;;;;;13.90;4.50;;;15.80;99.90;;;;;;4956172;29;20486;-56
2022/09/09 04:31:17;;;;;;;14.35;4.68;;;15.80;99.90;;;;;;4954271;29;20059;-52
2022/09/09 04:33:46;;;;;;;15.02;5.00;;;15.80;99.90;;;;;;4954011;28;20086;-53
2022/09/09 04:36:13;;;;;;;12.13;4.47;;;15.80;99.90;;;;;;4951873;29;20565;-55
2022/09/09 04:38:40;;;;;;;13.82;5.07;;;15.80;99.90;;;;;;4952486;29;20066;-56
2022/09/09 04:41:07;;;;;;;11.57;4.45;;;15.70;99.90;;;;;;4955606;28;20046;-53
2022/09/09 04:43:37;;;;;;;11.27;4.25;;;15.70;99.90;;;;;;4954116;28;20071;-55
2022/09/09 04:46:05;;;;;;;12.07;3.80;;;15.70;99.90;;;;;;4954309;29;20406;-56
2022/09/09 04:48:32;;;;;;;13.68;4.30;;;15.70;99.90;;;;;;4955220;29;20047;-55
2022/09/09 04:51:01;;;;;;;11.00;4.22;;;15.70;99.90;;;;;;4954338;29;20047;-55
2022/09/09 04:53:28;;;;;;;13.95;4.30;;;15.70;99.90;;;;;;4954025;28;20048;-57
2022/09/09 04:55:55;;;;;;;15.27;4.40;;;15.60;99.90;;;;;;4955509;28;20065;-57
2022/09/09 04:58:23;;;;;;;11.90;4.80;;;15.70;99.90;;;;;;4953836;29;20055;-56
2022/09/09 05:00:51;;;;;;;15.07;4.47;;;15.60;99.90;;;;;;4955276;29;20054;-55
2022/09/09 05:03:20;;;;;;;12.90;3.90;;;15.60;99.90;;;;;;4953878;29;20094;-55
2022/09/09 05:05:48;;;;;;;8.27;3.85;;;15.60;99.90;;;;;;4953751;29;20055;-56
2022/09/09 05:08:15;;;;;;;10.45;4.18;;;15.60;99.90;;;;;;4955208;28;20142;-55
2022/09/09 05:10:43;;;;;;;13.90;4.78;;;15.70;99.90;;;;;;4954413;28;20059;-55
2022/09/09 05:13:11;;;;;;;11.88;5.07;;;15.60;99.90;;;;;;4953724;29;20054;-55
2022/09/09 05:15:38;;;;;;;16.38;4.68;;;15.60;99.90;;;;;;4954090;28;20054;-55
2022/09/09 05:18:05;;;;;;;11.02;4.43;;;15.60;99.90;;;;;;4955258;28;20044;-56
2022/09/09 05:20:32;;;;;;;11.93;5.13;;;15.60;99.90;;;;;;4954149;28;20050;-55
2022/09/09 05:22:58;;;;;;;15.73;5.80;;;15.60;99.90;;;;;;4969463;28;20055;-55
2022/09/09 05:25:29;;;;;;;18.67;5.70;;;15.60;99.90;;;;;;4953850;29;20051;-55
2022/09/09 05:27:56;;;;;;;14.85;5.40;;;15.60;99.90;;;;;;4953695;29;20047;-56
2022/09/09 05:30:26;;;;;;;14.77;6.60;;;15.60;99.90;;;;;;4953673;29;20483;-56
2022/09/09 05:32:53;;;;;;;22.42;7.53;;;15.60;99.90;;;;;;4953774;28;20138;-56
2022/09/09 05:35:20;;;;;;;17.33;6.97;;;15.70;99.90;;;;;;4955343;29;20039;-54
2022/09/09 05:37:48;;;;;;;16.85;7.15;;;15.60;99.90;;;;;;4955360;28;20098;-56
2022/09/09 05:40:14;;;;;;;19.27;6.80;;;15.70;99.90;;;;;;4955217;29;20089;-57
2022/09/09 05:42:41;;;;;;;18.42;7.65;;;15.70;99.90;;;;;;4955035;29;20387;-58
2022/09/09 05:45:08;;;;;;;18.33;7.38;;;15.70;99.90;;;;;;4956165;28;20062;-56
2022/09/09 05:47:37;;;;;;;19.20;7.93;;;15.60;99.90;;;;;;4956557;29;20151;-57
2022/09/09 05:50:06;;;;;;;22.15;8.00;;;15.70;99.90;;;;;;4957311;29;20051;-58
2022/09/09 05:52:33;;;;;;;17.08;7.72;;;15.60;99.90;;;;;;4958857;29;20446;-58
2022/09/09 05:55:00;;;;;;;15.35;6.57;;;15.60;99.90;;;;;;4956875;29;20039;-58
2022/09/09 05:57:28;;;;;;;16.63;6.80;;;15.60;99.90;;;;;;4956439;29;20067;-57
2022/09/09 05:59:55;;;;;;;18.92;6.80;;;15.60;99.90;;;;;;4957406;29;20046;-57
2022/09/09 06:02:21;;;;;;;15.93;6.60;;;15.60;99.90;;;;;;4958231;29;20102;-56
2022/09/09 06:04:49;;;;;;;14.88;7.05;;;15.60;99.90;;;;;;4956929;28;20566;-57
2022/09/09 06:07:16;;;;;;;20.15;7.18;;;15.60;99.90;;;;;;4957631;29;20055;-55
2022/09/09 06:09:43;;;;;;;15.40;7.18;;;15.60;99.90;;;;;;4957196;28;20130;-53
2022/09/09 06:12:11;;;;;;;15.63;7.35;;;15.60;99.90;;;;;;4956845;29;20055;-56
2022/09/09 06:14:38;;;;;;;19.52;7.72;;;15.60;99.90;;;;;;4956359;28;20131;-55
2022/09/09 06:17:12;;;;;;;16.30;7.22;;;15.70;99.90;;;;;;4953791;29;20051;-57
2022/09/09 06:19:38;;;;;;;17.48;6.82;;;15.70;99.90;;;;;;4955867;28;20090;-56
2022/09/09 06:22:06;;;;;;;17.65;7.20;;;15.70;99.90;;;;;;4955789;29;20047;-56
2022/09/09 06:24:35;;;;;;;15.02;6.60;;;15.70;99.90;;;;;;4954688;28;20099;-55
2022/09/09 06:27:02;;;;;;;13.35;6.82;;;15.70;99.90;;;;;;4956856;29;20110;-52
2022/09/09 06:29:33;;;;;;;13.05;6.75;;;15.70;99.90;;;;;;4955584;29;20050;-57
2022/09/09 06:32:00;;;;;;;13.68;6.13;;;15.70;99.90;;;;;;4971983;28;20051;-57
2022/09/09 06:34:28;;;;;;;14.70;6.95;;;15.80;99.90;;;;;;4955340;28;20042;-57
2022/09/09 06:36:58;;;;;;;19.25;7.05;;;15.80;99.90;;;;;;4955046;29;20094;-57
2022/09/09 06:39:32;;;;;;;15.32;6.72;;;15.80;99.90;;;;;;4953192;28;20099;-56
2022/09/09 06:41:59;;;;;;;20.55;6.78;;;15.80;99.90;;;;;;4953604;28;20454;-54
2022/09/09 06:44:45;;;;;;;14.40;6.47;;;15.70;99.90;;;;;;4957619;29;20059;-57
2022/09/09 06:47:18;;;;;;;15.05;6.38;;;15.80;99.90;;;;;;4953328;29;20078;-55
2022/09/09 06:49:46;;;;;;;13.85;6.43;;;15.80;99.90;;;;;;4954720;28;20130;-57
2022/09/09 06:52:15;;;;;;;13.35;6.55;;;15.80;99.90;;;;;;4954359;28;20043;-56
2022/09/09 06:54:42;;;;;;;11.10;5.78;;;15.90;99.90;;;;;;4955336;28;20047;-53
2022/09/09 06:57:09;;;;;;;15.73;6.28;;;15.90;99.90;;;;;;4954422;28;20044;-56
2022/09/09 06:59:56;;;;;;;12.63;5.30;;;15.90;99.90;;;;;;4954277;29;20071;-56
2022/09/09 07:02:24;;;;;;;11.85;5.43;;;15.90;99.90;;;;;;4952847;28;20411;-55
2022/09/09 07:04:52;;;;;;;13.85;5.85;;;15.90;99.90;;;;;;4954351;29;20051;-54
2022/09/09 07:07:19;;;;;;;9.55;5.25;;;15.90;99.90;;;;;;4952428;29;20047;-55
2022/09/09 07:09:46;;;;;;;12.63;5.97;;;15.90;99.90;;;;;;4952840;29;20134;-57
2022/09/09 07:12:13;;;;;;;12.02;5.68;;;16.00;99.90;;;;;;4954002;29;20082;-54
2022/09/09 07:14:47;;;;;;;13.23;5.60;;;16.00;99.90;;;;;;4948517;28;20091;-56
2022/09/09 07:17:14;;;;;;;13.77;5.45;;;16.00;99.90;;;;;;4937798;29;20060;-55
2022/09/09 07:19:43;;;;;;;16.02;4.85;;;16.00;99.90;;;;;;4938156;29;20234;-54
2022/09/09 07:22:10;;;;;;;11.52;5.10;;;16.10;99.90;;;;;;4930261;29;20546;-56
2022/09/09 07:24:38;;;;;;;11.20;5.70;;;16.10;99.90;;;;;;4967176;28;20058;-53
2022/09/09 07:27:05;;;;;;;9.25;4.45;;;16.10;99.90;;;;;;4954783;29;20070;-57
2022/09/09 07:29:34;;;;;;;15.05;5.35;;;16.10;99.90;;;;;;4954043;29;20053;-57
2022/09/09 07:32:03;;;;;;;12.30;5.25;;;16.20;99.90;;;;;;4951930;29;20051;-56
2022/09/09 07:34:34;;;;;;;10.43;5.47;;;16.20;99.90;;;;;;4972105;28;20048;-55
2022/09/09 07:37:01;;;;;;;12.52;4.97;;;16.20;99.90;;;;;;4947228;29;20134;-55
2022/09/09 07:39:29;;;;;;;12.45;5.38;;;16.30;99.90;;;;;;4950930;29;20039;-57
2022/09/09 07:41:56;;;;;;;12.15;5.05;;;16.30;99.90;;;;;;4949298;29;20043;-54
2022/09/09 07:44:23;;;;;;;11.30;4.90;;;16.30;99.90;;;;;;4946655;28;20353;-54
2022/09/09 07:46:56;;;;;;;11.25;4.43;;;16.30;99.90;;;;;;4951642;28;20522;-55
2022/09/09 07:49:29;;;;;;;14.00;6.10;;;16.30;99.90;;;;;;4947298;28;20042;-57
2022/09/09 07:52:00;;;;;;;15.10;6.15;;;16.30;99.90;;;;;;4947593;29;20099;-56
2022/09/09 07:54:27;;;;;;;13.90;6.55;;;16.40;99.90;;;;;;4948183;28;20035;-54
2022/09/09 07:56:54;;;;;;;12.18;6.03;;;16.40;99.90;;;;;;4948167;29;20138;-57
2022/09/09 07:59:25;;;;;;;11.40;5.80;;;16.40;99.90;;;;;;4949899;29;20058;-55
2022/09/09 08:01:54;;;;;;;11.50;6.13;;;16.40;99.90;;;;;;4947820;28;20097;-57
2022/09/09 08:04:25;;;;;;;12.68;5.90;;;16.40;99.90;;;;;;4946842;28;20043;-56
2022/09/09 08:06:52;;;;;;;8.45;4.75;;;16.40;99.90;;;;;;4947507;29;20043;-55
2022/09/09 08:09:21;;;;;;;11.18;5.95;;;16.40;99.90;;;;;;4939662;29;20372;-54
2022/09/09 08:11:48;;;;;;;8.63;5.55;;;16.40;99.90;;;;;;4953307;29;20102;-57
2022/09/09 08:14:16;;;;;;;8.35;5.68;;;16.40;99.90;;;;;;4952506;28;20039;-51
2022/09/09 08:16:43;;;;;;;11.23;5.78;;;16.50;99.90;;;;;;4952723;29;20055;-56
2022/09/09 08:19:12;;;;;;;10.45;4.88;;;16.50;99.90;;;;;;4952059;29;20053;-55
2022/09/09 08:21:39;;;;;;;10.00;4.53;;;16.60;99.90;;;;;;4949668;29;20126;-54
2022/09/09 08:24:06;;;;;;;10.35;4.63;;;16.60;99.90;;;;;;4954165;29;20451;-55
2022/09/09 08:26:34;;;;;;;9.93;4.38;;;16.70;99.90;;;;;;4952484;29;20053;-52
2022/09/09 08:29:01;;;;;;;8.95;4.55;;;16.70;99.90;;;;;;4963211;28;20054;-54
2022/09/09 08:31:28;;;;;;;6.38;3.78;;;16.80;99.90;;;;;;4953981;29;20055;-57
2022/09/09 08:33:55;;;;;;;10.07;5.15;;;16.90;99.90;;;;;;4943599;29;20062;-56
2022/09/09 08:36:22;;;;;;;7.45;4.43;;;16.90;99.90;;;;;;4947927;28;20098;-58
2022/09/09 08:38:50;;;;;;;9.02;4.72;;;17.00;99.90;;;;;;4952820;28;20085;-57
2022/09/09 08:41:17;;;;;;;10.32;5.10;;;17.10;99.90;;;;;;4949643;29;20078;-57
2022/09/09 08:43:44;;;;;;;10.75;4.43;;;17.20;99.90;;;;;;4953630;28;20047;-57
2022/09/09 08:46:11;;;;;;;10.07;4.38;;;17.30;99.90;;;;;;4949535;29;20047;-55
2022/09/09 08:48:38;;;;;;;6.65;4.40;;;17.30;99.90;;;;;;4956297;28;20396;-56
2022/09/09 08:51:07;;;;;;;8.32;4.55;;;17.30;99.90;;;;;;4952471;28;20047;-54
2022/09/09 08:53:37;;;;;;;7.90;4.80;;;17.30;99.90;;;;;;4946265;28;20059;-55
2022/09/09 08:56:04;;;;;;;7.32;4.70;;;17.30;99.90;;;;;;4952899;29;20131;-57
2022/09/09 08:58:41;;;;;;;10.65;4.95;;;17.30;99.90;;;;;;4953464;29;20039;-55
2022/09/09 09:01:08;;;;;;;8.40;4.53;;;17.40;99.90;;;;;;4954732;28;20470;-56
2022/09/09 09:03:41;;;;;;;6.70;4.28;;;17.40;99.90;;;;;;4951956;28;20103;-52
2022/09/09 09:06:09;;;;;;;7.35;4.63;;;17.30;99.90;;;;;;4952575;29;20052;-54
2022/09/09 09:08:37;;;;;;;9.50;4.80;;;17.20;99.90;;;;;;4947604;29;20078;-56
2022/09/09 09:11:05;;;;;;;7.50;4.93;;;17.10;99.90;;;;;;4952138;29;20486;-55
2022/09/09 09:13:32;;;;;;;9.75;4.97;;;17.10;99.90;;;;;;4954563;28;20143;-56
2022/09/09 09:16:00;;;;;;;7.43;5.47;;;17.00;99.90;;;;;;4955666;29;20047;-54
2022/09/09 09:18:27;;;;;;;7.50;4.78;;;17.00;99.90;;;;;;4955913;29;20036;-53
2022/09/09 09:20:54;;;;;;;6.97;4.97;;;16.90;99.90;;;;;;4956046;29;20167;-52
2022/09/09 09:23:22;;;;;;;5.78;4.50;;;16.90;99.90;;;;;;4963382;28;20434;-56
2022/09/09 09:25:51;;;;;;;8.45;5.90;;;16.90;99.90;;;;;;4944448;29;20521;-53
2022/09/09 09:28:18;;;;;;;10.57;5.75;;;17.00;99.90;;;;;;4955890;29;20254;-56
2022/09/09 09:30:48;;;;;;;8.05;4.85;;;17.00;99.90;;;;;;4954134;29;20487;-56
2022/09/09 09:33:15;;;;;;;9.35;6.03;;;17.10;99.90;;;;;;4959979;28;20051;-56
2022/09/09 09:35:42;;;;;;;11.35;6.70;;;17.10;99.90;;;;;;4957120;28;20042;-57
2022/09/09 09:38:13;;;;;;;9.40;6.65;;;17.20;99.90;;;;;;4955685;29;20158;-56
2022/09/09 09:41:00;;;;;;;7.80;6.75;;;17.20;99.90;;;;;;4954777;29;20102;-53
2022/09/09 09:43:29;;;;;;;9.73;7.05;;;17.30;99.90;;;;;;4951378;28;20039;-55
2022/09/09 09:45:58;;;;;;;10.32;7.40;;;17.40;99.90;;;;;;4953915;29;20054;-56
2022/09/09 09:48:46;;;;;;;8.63;6.57;;;17.50;99.90;;;;;;4951990;29;20061;-57
2022/09/09 09:51:15;;;;;;;9.90;7.03;;;17.50;99.90;;;;;;4954148;29;20565;-52
2022/09/09 09:53:43;;;;;;;12.80;8.43;;;17.60;99.90;;;;;;4955932;29;20050;-49
2022/09/09 09:56:11;;;;;;;14.43;8.25;;;17.70;99.90;;;;;;4956695;28;20043;-52
2022/09/09 09:58:39;;;;;;;14.30;8.50;;;17.80;99.90;;;;;;4953445;29;20040;-55
2022/09/09 10:01:06;;;;;;;11.68;8.90;;;17.80;99.90;;;;;;4955942;29;20046;-53
2022/09/09 10:03:39;;;;;;;14.73;8.90;;;17.80;99.90;;;;;;4955301;28;20376;-55
2022/09/09 10:06:06;;;;;;;11.63;8.80;;;17.80;99.90;;;;;;4956115;29;20055;-56
2022/09/09 10:08:33;;;;;;;15.23;9.32;;;17.80;99.90;;;;;;4956544;29;20078;-51
2022/09/09 10:10:59;;;;;;;13.25;9.05;;;17.80;99.90;;;;;;4956199;29;20082;-56
2022/09/09 10:13:26;;;;;;;13.50;9.07;;;17.90;99.90;;;;;;4952860;28;20047;-54
2022/09/09 10:15:53;;;;;;;11.82;9.00;;;18.00;99.90;;;;;;4956143;28;20118;-55
2022/09/09 10:18:20;;;;;;;10.93;8.82;;;18.10;99.90;;;;;;4953386;29;20051;-58
2022/09/09 10:20:48;;;;;;;12.20;9.73;;;18.10;99.90;;;;;;4951153;29;20137;-58
2022/09/09 10:23:15;;;;;;;15.38;10.95;;;18.10;99.90;;;;;;4950334;28;20082;-52
2022/09/09 10:25:42;;;;;;;15.52;10.13;;;18.20;99.90;;;;;;4952537;28;20082;-55
2022/09/09 10:28:08;;;;;;;15.95;10.57;;;18.20;99.90;;;;;;4956500;28;20127;-53
2022/09/09 10:30:35;;;;;;;16.55;10.07;;;18.20;99.90;;;;;;4956852;28;20035;-58
2022/09/09 10:33:02;;;;;;;15.75;10.27;;;18.20;99.90;;;;;;4954441;28;20055;-55
2022/09/09 10:35:28;;;;;;;18.08;10.27;;;18.20;99.90;;;;;;4956173;28;20047;-53
2022/09/09 10:37:55;;;;;;;14.93;10.30;;;18.30;99.90;;;;;;4954978;28;20102;-57
2022/09/09 10:40:24;;;;;;;20.02;11.27;;;18.30;99.90;;;;;;4955593;28;20098;-53
2022/09/09 10:42:51;;;;;;;17.42;9.45;;;18.30;99.90;;;;;;4953817;28;20039;-63
2022/09/09 10:45:18;;;;;;;13.15;9.63;;;18.30;99.90;;;;;;4954576;28;20051;-56
2022/09/09 10:47:46;;;;;;;14.48;8.88;;;18.30;99.90;;;;;;4954460;28;20039;-60
2022/09/09 10:50:13;;;;;;;13.85;8.63;;;18.50;99.90;;;;;;4954437;28;20098;-63
2022/09/09 10:52:39;;;;;;;11.82;8.48;;;18.60;99.90;;;;;;4954464;28;20147;-58
2022/09/09 10:55:07;;;;;;;13.65;9.18;;;18.60;99.90;;;;;;4954887;29;20045;-57
2022/09/09 10:57:34;;;;;;;15.20;8.95;;;18.60;99.90;;;;;;4954885;28;20102;-57
2022/09/09 11:00:00;;;;;;;11.63;7.90;;;18.60;99.90;;;;;;4954575;28;20074;-57
2022/09/09 11:02:27;;;;;;;11.15;7.18;;;18.60;99.90;;;;;;4956017;28;20079;-58
2022/09/09 11:04:54;;;;;;;15.13;7.97;;;18.50;99.90;;;;;;4954555;28;20110;-55
2022/09/09 11:07:21;;;;;;;15.60;8.48;;;18.50;99.90;;;;;;4952757;29;20086;-57
2022/09/09 11:09:48;;;;;;;12.23;8.38;;;18.30;99.90;;;;;;4954775;29;20075;-57
2022/09/09 11:12:15;;;;;;;10.57;8.18;;;18.20;99.90;;;;;;4952672;29;20387;-55
2022/09/09 11:14:42;;;;;;;13.32;8.45;;;18.20;99.90;;;;;;4953802;29;20047;-56
2022/09/09 11:17:08;;;;;;;15.52;9.63;;;18.10;99.90;;;;;;4955049;28;20533;-56
2022/09/09 11:19:35;;;;;;;12.52;8.32;;;18.10;99.90;;;;;;4954753;28;20039;-57
2022/09/09 11:22:02;;;;;;;13.98;7.93;;;18.10;99.90;;;;;;4952033;28;20039;-54
2022/09/09 11:24:29;;;;;;;11.63;7.32;;;18.20;99.90;;;;;;4949868;29;20061;-57
2022/09/09 11:26:56;;;;;;;12.20;6.60;;;18.20;99.90;;;;;;4955614;29;20447;-60
2022/09/09 11:29:23;;;;;;;10.18;5.65;;;18.20;99.90;;;;;;4950664;29;20062;-50
2022/09/09 11:31:50;;;;;;;6.55;4.90;;;18.20;99.90;;;;;;4954822;28;20451;-56
2022/09/09 11:34:18;;;;;;;6.53;4.47;;;18.20;99.90;;;;;;4945429;28;20091;-56
2022/09/09 11:36:44;;;;;;;6.07;3.80;;;18.10;99.90;;;;;;4952310;28;20082;-54
2022/09/09 11:39:11;;;;;;;7.35;3.50;;;18.10;99.90;;;;;;4955551;29;20469;-55
2022/09/09 11:41:38;;;;;;;6.35;4.03;;;18.10;99.90;;;;;;4956050;28;20487;-55
2022/09/09 11:44:05;;;;;;;5.97;3.88;;;18.10;99.90;;;;;;4955332;28;20122;-56
2022/09/09 11:46:33;;;;;;;8.05;3.97;;;18.10;99.90;;;;;;4953392;29;20487;-54
2022/09/09 11:49:04;;;;;;;6.60;4.30;;;18.10;99.90;;;;;;4948715;29;20509;-55
2022/09/09 11:51:31;;;;;;;9.80;4.15;;;18.20;99.90;;;;;;4951073;28;20038;-56
2022/09/09 11:53:58;;;;;;;7.43;4.57;;;18.30;99.90;;;;;;4952099;28;20459;-55
2022/09/09 11:56:26;;;;;;;6.20;3.47;;;18.20;99.90;;;;;;4954331;28;20454;-55
2022/09/09 11:58:53;;;;;;;6.30;3.10;;;18.20;99.90;;;;;;4954111;29;20507;-55
2022/09/09 12:01:19;;;;;;;6.13;2.67;;;18.20;99.90;;;;;;4950700;29;20062;-56
2022/09/09 12:03:46;;;;;;;5.65;3.08;;;18.20;99.90;;;;;;4954617;28;20071;-56
2022/09/09 12:06:13;;;;;;;4.90;2.30;;;18.30;99.90;;;;;;4953370;29;20070;-54
2022/09/09 12:08:40;;;;;;;5.78;2.67;;;18.40;99.90;;;;;;4953745;28;20074;-57
2022/09/09 12:11:07;;;;;;;5.05;2.53;;;18.50;99.90;;;;;;4953577;29;20047;-54
2022/09/09 12:13:34;;;;;;;5.85;2.75;;;18.60;99.90;;;;;;4954834;29;20090;-57
2022/09/09 12:16:05;;;;;;;4.38;2.50;;;18.70;99.90;;;;;;4968855;28;20047;-63
2022/09/09 12:18:31;;;;;;;7.43;2.95;;;18.70;99.90;;;;;;4950792;29;20031;-55
2022/09/09 12:20:58;;;;;;;6.93;3.17;;;18.70;99.90;;;;;;4951260;29;20039;-58
2022/09/09 12:23:26;;;;;;;9.00;3.58;;;18.70;99.90;;;;;;4950903;28;20035;-54
2022/09/09 12:25:53;;;;;;;5.90;2.90;;;18.60;99.90;;;;;;4951328;28;20043;-56
2022/09/09 12:28:20;;;;;;;5.47;2.80;;;18.60;99.90;;;;;;4953959;28;20066;-55
2022/09/09 12:30:46;;;;;;;6.22;2.97;;;18.70;99.90;;;;;;4952460;29;20447;-54
2022/09/09 12:33:13;;;;;;;6.10;2.80;;;18.90;99.90;;;;;;4951985;28;20031;-54
2022/09/09 12:35:40;;;;;;;5.50;2.60;;;19.00;99.90;;;;;;4953681;28;20047;-54
2022/09/09 12:38:09;;;;;;;6.22;2.70;;;19.20;99.90;;;;;;4953253;29;20483;-55
2022/09/09 12:40:35;;;;;;;4.80;3.03;;;19.30;99.90;;;;;;4954367;28;20067;-57
2022/09/09 12:43:02;;;;;;;4.78;2.80;;;19.50;99.90;;;;;;4949459;29;20372;-54